createdAt,value
2023-02-23T00:02:26.010Z,22.92
2023-02-23T00:04:55.508Z,24.15
2023-02-23T00:07:27.117Z,23.40
2023-02-23T00:09:57.011Z,24.60
2023-02-23T00:12:29.794Z,25.08
2023-02-23T00:14:59.748Z,24.25
2023-02-23T00:17:31.554Z,26.38
2023-02-23T00:20:01.813Z,27.20
2023-02-23T00:22:31.320Z,26.50
2023-02-23T00:25:01.327Z,27.13
2023-02-23T00:27:33.696Z,27.58
2023-02-23T00:30:04.003Z,25.02
2023-02-23T00:32:40.888Z,26.08
2023-02-23T00:35:17.392Z,24.98
2023-02-23T00:37:48.056Z,27.30
2023-02-23T00:40:18.091Z,26.67
2023-02-23T00:42:52.411Z,26.55
2023-02-23T00:45:21.896Z,26.23
2023-02-23T00:47:51.465Z,23.23
2023-02-23T00:50:21.332Z,22.27
2023-02-23T00:52:50.766Z,20.92
2023-02-23T00:55:20.374Z,22.23
2023-02-23T00:57:52.412Z,23.00
2023-02-23T01:00:22.372Z,23.60
2023-02-23T01:02:51.634Z,23.33
2023-02-23T01:05:22.234Z,22.70
2023-02-23T01:07:51.681Z,23.48
2023-02-23T01:10:24.474Z,22.23
2023-02-23T01:12:56.510Z,22.98
2023-02-23T01:15:27.744Z,23.05
2023-02-23T01:17:57.276Z,22.83
2023-02-23T01:20:27.485Z,23.08
2023-02-23T01:22:57.685Z,23.23
2023-02-23T01:25:29.183Z,23.10
2023-02-23T01:28:01.235Z,23.20
2023-02-23T01:30:30.902Z,24.30
2023-02-23T01:33:01.032Z,23.45
2023-02-23T01:35:30.703Z,23.42
2023-02-23T01:38:00.174Z,22.70
2023-02-23T01:40:31.441Z,23.02
2023-02-23T01:43:13.119Z,23.08
2023-02-23T01:45:42.697Z,23.67
2023-02-23T01:48:14.746Z,24.08
2023-02-23T01:50:47.392Z,24.88
2023-02-23T01:53:17.297Z,25.52
2023-02-23T01:55:47.136Z,25.73
2023-02-23T01:58:20.753Z,26.17
2023-02-23T02:00:51.432Z,27.58
2023-02-23T02:03:23.150Z,27.13
2023-02-23T02:05:52.727Z,26.95
2023-02-23T02:08:24.017Z,26.15
2023-02-23T02:10:56.079Z,27.13
2023-02-23T02:13:29.525Z,26.60
2023-02-23T02:16:13.209Z,27.42
2023-02-23T02:18:49.809Z,27.17
2023-02-23T02:21:42.881Z,25.90
2023-02-23T02:24:56.205Z,25.90
2023-02-23T02:27:32.984Z,25.88
2023-02-23T02:30:32.120Z,27.10
2023-02-23T02:33:32.794Z,26.65
2023-02-23T02:36:11.230Z,26.80
2023-02-23T02:38:53.614Z,26.10
2023-02-23T02:41:25.622Z,26.67
2023-02-23T02:43:58.210Z,27.48
2023-02-23T02:46:29.317Z,27.85
2023-02-23T02:51:31.197Z,26.60
2023-02-23T02:54:07.150Z,27.33
2023-02-23T02:56:40.685Z,27.13
2023-02-23T02:59:23.641Z,27.23
2023-02-23T03:02:05.583Z,26.40
2023-02-23T03:04:47.743Z,26.70
2023-02-23T03:07:31.990Z,27.95
2023-02-23T03:10:18.033Z,26.90
2023-02-23T03:13:04.572Z,27.17
2023-02-23T03:15:52.810Z,28.73
2023-02-23T03:18:46.997Z,29.88
2023-02-23T03:21:30.926Z,28.98
2023-02-23T03:24:16.991Z,30.23
2023-02-23T03:27:03.288Z,29.65
2023-02-23T03:29:47.394Z,29.33
2023-02-23T03:32:33.262Z,29.48
2023-02-23T03:35:17.086Z,29.30
2023-02-23T03:38:01.547Z,29.58
2023-02-23T03:40:46.800Z,29.13
2023-02-23T03:43:33.350Z,27.77
2023-02-23T03:46:15.313Z,27.35
2023-02-23T03:48:57.375Z,28.08
2023-02-23T03:51:39.992Z,28.00
2023-02-23T03:54:24.197Z,28.02
2023-02-23T03:57:06.807Z,28.25
2023-02-23T03:59:53.605Z,26.70
2023-02-23T04:02:35.652Z,27.77
2023-02-23T04:05:18.773Z,28.10
2023-02-23T04:08:01.192Z,27.48
2023-02-23T04:10:43.164Z,27.88
2023-02-23T04:13:14.644Z,27.52
2023-02-23T04:15:47.055Z,27.73
2023-02-23T04:18:17.622Z,27.00
2023-02-23T04:20:47.167Z,27.23
2023-02-23T04:23:16.637Z,27.40
2023-02-23T04:25:47.765Z,27.95
2023-02-23T04:28:17.445Z,28.77
2023-02-23T04:30:49.561Z,28.48
2023-02-23T04:33:19.090Z,29.15
2023-02-23T04:35:48.577Z,30.25
2023-02-23T04:38:18.056Z,32.67
2023-02-23T04:40:47.531Z,32.38
2023-02-23T04:43:17.073Z,32.22
2023-02-23T04:45:49.545Z,32.33
2023-02-23T04:48:19.083Z,32.22
2023-02-23T04:50:48.585Z,33.45
2023-02-23T04:53:18.089Z,33.40
2023-02-23T04:55:47.510Z,35.88
2023-02-23T04:58:17.019Z,34.80
2023-02-23T05:00:49.717Z,35.03
2023-02-23T05:03:19.402Z,35.28
2023-02-23T05:05:48.854Z,34.92
2023-02-23T05:08:18.331Z,34.63
2023-02-23T05:10:49.018Z,32.97
2023-02-23T05:13:18.470Z,31.48
2023-02-23T05:15:50.505Z,32.17
2023-02-23T05:18:20.115Z,33.25
2023-02-23T05:20:49.566Z,32.10
2023-02-23T05:23:19.038Z,33.80
2023-02-23T05:25:48.474Z,33.92
2023-02-23T05:28:17.979Z,33.85
2023-02-23T05:30:50.150Z,33.92
2023-02-23T05:33:19.984Z,35.05
2023-02-23T05:35:49.437Z,33.47
2023-02-23T05:38:20.065Z,34.90
2023-02-23T05:40:49.512Z,32.63
2023-02-23T05:43:18.973Z,34.47
2023-02-23T05:45:51.000Z,34.47
2023-02-23T05:48:20.523Z,33.30
2023-02-23T05:50:49.977Z,34.10
2023-02-23T05:53:19.430Z,33.85
2023-02-23T05:55:48.901Z,33.45
2023-02-23T05:58:18.876Z,34.15
2023-02-23T06:00:51.499Z,33.95
2023-02-23T06:03:22.668Z,32.95
2023-02-23T06:05:53.487Z,35.03
2023-02-23T06:08:23.051Z,34.35
2023-02-23T06:10:52.567Z,33.78
2023-02-23T06:13:22.184Z,33.53
2023-02-23T06:15:54.284Z,34.53
2023-02-23T06:18:24.014Z,33.50
2023-02-23T06:20:53.601Z,34.70
2023-02-23T06:23:23.041Z,34.40
2023-02-23T06:25:52.527Z,33.15
2023-02-23T06:28:22.079Z,33.47
2023-02-23T06:30:54.394Z,34.50
2023-02-23T06:33:24.185Z,33.28
2023-02-23T06:35:54.806Z,33.25
2023-02-23T06:38:24.393Z,32.47
2023-02-23T06:40:53.888Z,34.03
2023-02-23T06:43:23.541Z,31.92
2023-02-23T06:45:56.821Z,32.95
2023-02-23T06:48:26.331Z,32.38
2023-02-23T06:50:55.778Z,33.10
2023-02-23T06:53:25.306Z,32.67
2023-02-23T06:55:54.767Z,33.65
2023-02-23T06:58:24.272Z,32.83
2023-02-23T07:00:58.593Z,34.13
2023-02-23T07:03:28.309Z,32.85
2023-02-23T07:05:57.790Z,32.40
2023-02-23T07:08:27.278Z,28.40
2023-02-23T07:10:57.777Z,30.20
2023-02-23T07:13:27.246Z,31.80
2023-02-23T07:16:02.089Z,34.20
2023-02-23T07:18:31.606Z,37.20
2023-02-23T07:21:01.178Z,38.65
2023-02-23T07:23:30.861Z,39.28
2023-02-23T07:26:01.040Z,38.75
2023-02-23T07:28:30.501Z,39.53
2023-02-23T07:31:02.600Z,41.10
2023-02-23T07:33:32.629Z,38.50
2023-02-23T07:36:02.176Z,39.55
2023-02-23T07:38:31.650Z,38.28
2023-02-23T07:41:01.125Z,36.85
2023-02-23T07:43:30.629Z,37.38
2023-02-23T07:46:04.813Z,36.08
2023-02-23T07:48:34.694Z,38.20
2023-02-23T07:51:04.130Z,38.20
2023-02-23T07:53:33.644Z,37.58
2023-02-23T07:56:04.174Z,36.88
2023-02-23T07:58:34.705Z,35.30
2023-02-23T08:01:07.018Z,34.95
2023-02-23T08:03:36.528Z,33.90
2023-02-23T08:06:06.050Z,33.55
2023-02-23T08:08:36.140Z,34.13
2023-02-23T08:11:06.458Z,36.53
2023-02-23T08:13:37.238Z,34.80
2023-02-23T08:16:12.465Z,33.72
2023-02-23T08:18:42.091Z,32.65
2023-02-23T08:21:11.977Z,35.47
2023-02-23T08:23:41.443Z,33.72
2023-02-23T08:26:11.742Z,31.42
2023-02-23T08:28:41.889Z,30.08
2023-02-23T08:31:16.310Z,27.70
2023-02-23T08:33:45.863Z,27.17
2023-02-23T08:36:15.549Z,28.65
2023-02-23T08:38:45.172Z,26.55
2023-02-23T08:41:14.728Z,27.90
2023-02-23T08:43:44.257Z,28.05
2023-02-23T08:46:18.676Z,28.17
2023-02-23T08:48:48.350Z,27.98
2023-02-23T08:51:18.225Z,28.20
2023-02-23T08:53:47.942Z,30.58
2023-02-23T08:56:18.081Z,28.83
2023-02-23T08:58:47.555Z,29.10
2023-02-23T09:01:23.354Z,27.83
2023-02-23T09:03:52.906Z,28.38
2023-02-23T09:06:23.429Z,29.23
2023-02-23T09:08:53.820Z,29.30
2023-02-23T09:11:23.309Z,30.08
2023-02-23T09:13:53.051Z,31.08
2023-02-23T09:16:25.143Z,29.40
2023-02-23T09:18:54.692Z,27.80
2023-02-23T09:21:25.336Z,28.15
2023-02-23T09:23:56.286Z,26.70
2023-02-23T09:26:26.369Z,26.83
2023-02-23T09:28:55.840Z,28.25
2023-02-23T09:31:28.191Z,26.58
2023-02-23T09:33:57.686Z,26.58
2023-02-23T09:36:27.772Z,27.38
2023-02-23T09:38:58.023Z,26.98
2023-02-23T09:41:38.754Z,27.75
2023-02-23T09:44:12.053Z,29.33
2023-02-23T09:46:46.547Z,28.05
2023-02-23T09:49:17.816Z,27.60
2023-02-23T09:51:49.313Z,28.52
2023-02-23T09:54:19.127Z,27.35
2023-02-23T09:56:49.944Z,28.85
2023-02-23T09:59:20.276Z,28.70
2023-02-23T10:02:01.638Z,29.30
2023-02-23T10:04:32.737Z,27.95
2023-02-23T10:09:46.406Z,28.33
2023-02-23T10:12:19.631Z,27.58
2023-02-23T10:14:59.126Z,26.95
2023-02-23T10:17:35.453Z,28.60
2023-02-23T10:20:09.270Z,29.23
2023-02-23T10:22:38.875Z,28.05
2023-02-23T10:25:12.343Z,26.48
2023-02-23T10:27:43.698Z,26.67
2023-02-23T10:30:21.296Z,27.88
2023-02-23T10:32:56.320Z,27.63
2023-02-23T10:35:26.350Z,28.08
2023-02-23T10:37:55.915Z,26.73
2023-02-23T10:40:27.724Z,26.85
2023-02-23T10:42:57.482Z,25.17
2023-02-23T10:45:27.799Z,24.45
2023-02-23T10:48:01.163Z,24.37
2023-02-23T10:50:30.764Z,23.45
2023-02-23T10:53:01.542Z,24.05
2023-02-23T10:55:31.751Z,20.88
2023-02-23T10:58:09.600Z,22.73
2023-02-23T11:00:40.423Z,22.02
2023-02-23T11:03:25.502Z,22.45
2023-02-23T11:05:55.507Z,20.33
2023-02-23T11:08:29.347Z,19.95
2023-02-23T11:11:03.936Z,19.95
2023-02-23T11:13:38.234Z,18.23
2023-02-23T11:16:10.414Z,18.00
2023-02-23T11:18:43.558Z,19.42
2023-02-23T11:21:14.293Z,18.27
2023-02-23T11:23:43.872Z,17.45
2023-02-23T11:26:35.723Z,17.13
2023-02-23T11:29:11.173Z,17.20
2023-02-23T11:31:40.917Z,16.02
2023-02-23T11:34:20.207Z,17.35
2023-02-23T11:36:49.679Z,16.33
2023-02-23T11:39:23.649Z,16.65
2023-02-23T11:42:07.630Z,15.63
2023-02-23T11:44:37.094Z,14.63
2023-02-23T11:47:06.712Z,14.25
2023-02-23T11:49:39.543Z,14.73
2023-02-23T11:52:15.359Z,14.95
2023-02-23T11:54:44.848Z,14.40
2023-02-23T11:57:14.467Z,19.58
2023-02-23T11:59:43.939Z,20.15
2023-02-23T12:02:23.278Z,20.52
2023-02-23T12:04:56.347Z,18.45
2023-02-23T12:07:37.462Z,16.90
2023-02-23T12:10:10.001Z,14.55
2023-02-23T12:12:47.923Z,13.73
2023-02-23T12:15:22.822Z,15.40
2023-02-23T12:17:53.678Z,14.95
2023-02-23T12:20:27.408Z,13.93
2023-02-23T12:22:58.981Z,13.02
2023-02-23T12:25:30.220Z,13.95
2023-02-23T12:28:17.919Z,14.30
2023-02-23T12:30:50.018Z,12.80
2023-02-23T12:33:21.620Z,12.82
2023-02-23T12:35:57.290Z,13.30
2023-02-23T12:38:33.308Z,12.95
2023-02-23T12:41:06.290Z,12.80
2023-02-23T12:43:39.661Z,11.88
2023-02-23T12:46:12.594Z,9.52
2023-02-23T12:48:48.094Z,9.27
2023-02-23T12:51:25.565Z,8.40
2023-02-23T12:53:55.712Z,9.38
2023-02-23T12:56:47.201Z,8.97
2023-02-23T12:59:47.087Z,8.88
2023-02-23T13:02:18.121Z,8.93
2023-02-23T13:07:41.956Z,9.55
2023-02-23T13:10:17.241Z,9.98
2023-02-23T13:12:51.325Z,9.82
2023-02-23T13:15:26.966Z,9.95
2023-02-23T13:17:59.573Z,10.32
2023-02-23T13:20:33.756Z,10.98
2023-02-23T13:23:12.626Z,11.23
2023-02-23T13:25:45.929Z,10.82
2023-02-23T13:28:18.808Z,10.90
2023-02-23T13:30:48.810Z,11.73
2023-02-23T13:33:35.078Z,11.48
2023-02-23T13:36:08.780Z,11.63
2023-02-23T13:38:44.686Z,11.50
2023-02-23T13:41:17.908Z,12.38
2023-02-23T13:43:49.317Z,12.20
2023-02-23T13:46:24.440Z,11.75
2023-02-23T13:49:00.538Z,11.82
2023-02-23T13:51:35.538Z,11.73
2023-02-23T13:54:10.107Z,11.43
2023-02-23T13:56:44.688Z,11.73
2023-02-23T13:59:19.317Z,11.27
2023-02-23T14:01:50.374Z,11.57
2023-02-23T14:06:56.763Z,10.93
2023-02-23T14:09:31.856Z,10.38
2023-02-23T14:12:07.537Z,11.68
2023-02-23T14:14:47.741Z,11.18
2023-02-23T14:17:54.062Z,12.17
2023-02-23T14:20:30.076Z,11.55
2023-02-23T14:23:25.377Z,13.43
2023-02-23T14:26:12.870Z,13.48
2023-02-23T14:28:42.738Z,12.90
2023-02-23T14:31:22.611Z,11.52
2023-02-23T14:33:55.065Z,12.40
2023-02-23T14:36:40.749Z,12.73
2023-02-23T14:39:11.998Z,12.85
2023-02-23T14:41:50.183Z,13.05
2023-02-23T14:44:29.399Z,12.73
2023-02-23T14:47:03.122Z,12.27
2023-02-23T14:49:35.132Z,12.05
2023-02-23T14:52:08.919Z,12.48
2023-02-23T14:54:39.042Z,12.00
2023-02-23T14:57:20.391Z,12.03
2023-02-23T14:59:55.439Z,10.98
2023-02-23T15:02:25.782Z,11.32
2023-02-23T15:04:55.383Z,10.85
2023-02-23T15:07:28.974Z,10.20
2023-02-23T15:09:59.064Z,10.32
2023-02-23T15:12:31.987Z,10.05
2023-02-23T15:15:02.907Z,9.68
2023-02-23T15:17:35.102Z,8.10
2023-02-23T15:20:15.864Z,7.60
2023-02-23T15:22:46.841Z,7.78
2023-02-23T15:25:17.883Z,7.25
2023-02-23T15:30:27.635Z,7.50
2023-02-23T15:33:07.580Z,8.43
2023-02-23T15:35:45.127Z,8.27
2023-02-23T15:38:40.431Z,8.45
2023-02-23T15:41:05.646Z,8.35
2023-02-23T15:43:38.109Z,8.48
2023-02-23T15:46:08.048Z,7.97
2023-02-23T15:48:46.002Z,7.97
2023-02-23T15:51:24.526Z,8.57
2023-02-23T15:53:54.351Z,8.57
2023-02-23T15:56:26.454Z,8.35
2023-02-23T15:58:59.646Z,7.90
2023-02-23T16:01:30.404Z,8.40
2023-02-23T16:04:03.065Z,8.20
2023-02-23T16:06:36.501Z,8.80
2023-02-23T16:09:19.983Z,8.52
2023-02-23T16:11:51.986Z,8.85
2023-02-23T16:14:25.327Z,8.80
2023-02-23T16:17:10.491Z,9.40
2023-02-23T16:19:42.210Z,8.55
2023-02-23T16:22:19.161Z,9.52
2023-02-23T16:24:48.752Z,9.30
2023-02-23T16:27:20.239Z,9.95
2023-02-23T16:30:00.560Z,9.38
2023-02-23T16:32:36.578Z,9.27
2023-02-23T16:35:12.073Z,10.00
2023-02-23T16:37:53.073Z,10.07
2023-02-23T16:40:22.593Z,9.82
2023-02-23T16:42:54.002Z,10.65
2023-02-23T16:45:27.391Z,10.32
2023-02-23T16:48:02.077Z,10.98
2023-02-23T16:50:33.802Z,11.23
2023-02-23T16:53:03.638Z,13.40
2023-02-23T16:55:39.158Z,12.45
2023-02-23T16:58:11.829Z,12.45
2023-02-23T17:00:44.335Z,11.85
2023-02-23T17:03:20.353Z,12.07
2023-02-23T17:05:49.959Z,12.35
2023-02-23T17:08:20.331Z,12.35
2023-02-23T17:10:50.796Z,11.95
2023-02-23T17:13:21.883Z,11.93
2023-02-23T17:15:56.496Z,12.43
2023-02-23T17:18:27.245Z,11.63
2023-02-23T17:20:57.596Z,10.48
2023-02-23T17:23:28.088Z,11.27
2023-02-23T17:32:30.059Z,12.27
2023-02-23T17:35:02.212Z,12.25
2023-02-23T17:37:32.086Z,11.93
2023-02-23T17:40:01.532Z,12.75
2023-02-23T17:42:35.030Z,11.52
2023-02-23T17:45:04.920Z,12.75
2023-02-23T17:47:34.964Z,11.80
2023-02-23T17:50:07.569Z,10.95
2023-02-23T17:52:37.150Z,11.35
2023-02-23T17:55:06.962Z,11.05
2023-02-23T17:57:36.417Z,11.52
2023-02-23T18:00:07.120Z,11.18
2023-02-23T18:02:36.614Z,10.93
2023-02-23T18:05:09.178Z,10.88
2023-02-23T18:07:38.658Z,11.77
2023-02-23T18:10:08.935Z,11.82
2023-02-23T18:12:38.450Z,12.10
2023-02-23T18:15:08.281Z,12.50
2023-02-23T18:17:37.750Z,12.45
2023-02-23T18:20:14.950Z,13.93
2023-02-23T18:22:44.565Z,14.07
2023-02-23T18:25:22.484Z,14.48
2023-02-23T18:27:55.961Z,15.30
2023-02-23T18:30:27.119Z,15.10
2023-02-23T18:33:00.597Z,14.80
2023-02-23T18:35:36.108Z,17.23
2023-02-23T18:38:05.855Z,15.20
2023-02-23T18:40:35.324Z,15.02
2023-02-23T18:43:04.819Z,15.90
2023-02-23T18:45:34.246Z,14.32
2023-02-23T18:48:04.421Z,14.90
2023-02-23T18:50:36.809Z,15.13
2023-02-23T18:53:09.027Z,14.63
2023-02-23T18:55:39.323Z,14.05
2023-02-23T18:58:08.817Z,14.43
2023-02-23T19:00:42.798Z,13.07
2023-02-23T19:03:12.831Z,12.20
2023-02-23T19:05:53.268Z,12.23
2023-02-23T19:08:22.843Z,12.60
2023-02-23T19:10:52.595Z,11.75
2023-02-23T19:13:22.350Z,12.52
2023-02-23T19:15:53.373Z,11.65
2023-02-23T19:18:23.038Z,12.20
2023-02-23T19:20:57.011Z,12.10
2023-02-23T19:23:26.512Z,12.02
2023-02-23T19:25:55.973Z,12.57
2023-02-23T19:28:25.444Z,13.75
2023-02-23T19:31:03.959Z,13.13
2023-02-23T19:33:33.537Z,14.32
2023-02-23T19:36:07.483Z,15.38
2023-02-23T19:38:36.968Z,14.77
2023-02-23T19:41:08.016Z,15.88
2023-02-23T19:46:07.036Z,16.10
2023-02-23T19:48:36.550Z,16.23
2023-02-23T19:51:10.153Z,16.38
2023-02-23T19:53:39.972Z,16.45
2023-02-23T19:56:10.378Z,16.60
2023-02-23T19:58:43.050Z,17.20
2023-02-23T20:01:14.662Z,15.35
2023-02-23T20:03:45.495Z,16.38
2023-02-23T20:06:18.895Z,18.27
2023-02-23T20:08:48.912Z,16.55
2023-02-23T20:11:18.813Z,16.73
2023-02-23T20:13:50.892Z,17.85
2023-02-23T20:16:20.558Z,17.70
2023-02-23T20:18:50.058Z,18.35
2023-02-23T20:21:23.922Z,18.80
2023-02-23T20:23:53.657Z,18.10
2023-02-23T20:26:26.611Z,18.95
2023-02-23T20:28:56.167Z,18.35
2023-02-23T20:31:27.947Z,19.02
2023-02-23T20:33:57.886Z,18.80
2023-02-23T20:36:29.937Z,18.25
2023-02-23T20:38:59.169Z,19.00
2023-02-23T20:41:31.577Z,17.38
2023-02-23T20:44:01.392Z,18.17
2023-02-23T20:46:32.607Z,18.10
2023-02-23T20:49:03.715Z,18.40
2023-02-23T20:54:05.109Z,18.45
2023-02-23T20:56:34.749Z,19.05
2023-02-23T20:59:04.511Z,18.33
2023-02-23T21:01:34.175Z,19.60
2023-02-23T21:04:03.741Z,18.70
2023-02-23T21:06:35.778Z,19.05
2023-02-23T21:09:07.082Z,19.63
2023-02-23T21:11:36.560Z,20.70
2023-02-23T21:14:08.439Z,20.20
2023-02-23T21:16:41.725Z,19.85
2023-02-23T21:19:13.938Z,19.92
2023-02-23T21:21:47.818Z,20.27
2023-02-23T21:24:17.631Z,20.95
2023-02-23T21:26:48.018Z,19.85
2023-02-23T21:29:18.166Z,20.00
2023-02-23T21:31:48.976Z,20.63
2023-02-23T21:34:21.451Z,20.35
2023-02-23T21:36:53.674Z,21.33
2023-02-23T21:39:23.144Z,21.60
2023-02-23T21:41:52.687Z,21.63
2023-02-23T21:44:22.120Z,21.35
2023-02-23T21:46:52.060Z,19.98
2023-02-23T21:49:21.939Z,19.35
2023-02-23T21:51:55.252Z,19.23
2023-02-23T21:54:24.731Z,20.10
2023-02-23T21:56:54.169Z,19.35
2023-02-23T21:59:24.057Z,19.25
2023-02-23T22:01:53.497Z,19.13
2023-02-23T22:04:22.998Z,18.88
2023-02-23T22:06:55.035Z,18.17
2023-02-23T22:09:24.483Z,17.92
2023-02-23T22:11:53.914Z,17.67
2023-02-23T22:14:23.891Z,16.85
2023-02-23T22:16:53.453Z,17.25
2023-02-23T22:19:23.041Z,18.02
2023-02-23T22:21:55.183Z,17.70
2023-02-23T22:24:24.607Z,17.55
2023-02-23T22:26:55.117Z,16.10
2023-02-23T22:29:24.827Z,16.90
2023-02-23T22:31:55.433Z,17.30
2023-02-23T22:34:25.065Z,15.73
2023-02-23T22:36:57.058Z,14.98
2023-02-23T22:39:26.611Z,14.98
2023-02-23T22:41:56.056Z,14.45
2023-02-23T22:44:25.502Z,13.25
2023-02-23T22:46:55.070Z,12.80
2023-02-23T22:49:24.947Z,13.20
2023-02-23T22:51:57.091Z,12.80
2023-02-23T22:54:26.641Z,13.65
2023-02-23T22:56:56.086Z,13.40
2023-02-23T22:59:25.614Z,12.93
2023-02-23T23:01:56.516Z,13.05
2023-02-23T23:04:27.012Z,13.00
2023-02-23T23:06:59.099Z,12.50
2023-02-23T23:09:31.481Z,13.20
2023-02-23T23:12:00.977Z,13.27
2023-02-23T23:14:32.676Z,12.68
2023-02-23T23:17:02.250Z,12.90
2023-02-23T23:19:38.962Z,12.63
2023-02-23T23:22:14.512Z,13.38
2023-02-23T23:24:46.263Z,13.45
2023-02-23T23:27:19.798Z,13.35
2023-02-23T23:29:49.349Z,14.43
2023-02-23T23:32:27.520Z,13.10
2023-02-23T23:35:00.008Z,13.77
2023-02-23T23:37:32.056Z,12.95
2023-02-23T23:40:05.197Z,13.38
2023-02-23T23:42:34.895Z,13.02
2023-02-23T23:45:06.339Z,13.25
2023-02-23T23:47:35.803Z,13.35
2023-02-23T23:50:10.872Z,13.88
2023-02-23T23:52:44.137Z,13.48
2023-02-23T23:55:14.759Z,13.43
2023-02-23T23:57:44.384Z,13.32
